Time;durP1;ratioP1;P1;durP2;ratioP2;P2;SDS_P1;SDS_P2;PMS_P1;PMS_P2;Temp;Humidity;BMP_temperature;BMP_pressure;BME280_temperature;BME280_humidity;BME280_pressure;Samples;Min_cycle;Max_cycle;Signal;HPM_P1;HPM_P2
2020/12/22 00:01:31;;;;;;;1999.90;999.90;;;11.00;99.90;;;;;;5000962;28;20592;-80
2020/12/22 00:04:00;;;;;;;1999.90;999.90;;;11.00;99.90;;;;;;5002878;28;20174;-80
2020/12/22 00:06:25;;;;;;;1999.90;999.90;;;11.00;99.90;;;;;;5002943;28;20167;-80
2020/12/22 00:08:51;;;;;;;1999.90;999.90;;;11.10;99.90;;;;;;5002911;28;20225;-80
2020/12/22 00:11:19;;;;;;;1999.90;999.90;;;11.10;99.90;;;;;;5003680;28;20170;-80
2020/12/22 00:13:44;;;;;;;1999.90;999.90;;;11.10;99.90;;;;;;5004333;28;20212;-80
2020/12/22 00:16:10;;;;;;;1999.90;999.90;;;11.20;99.90;;;;;;5003350;28;20163;-80
2020/12/22 00:18:36;;;;;;;1999.90;999.90;;;11.20;99.90;;;;;;5003967;28;20175;-80
2020/12/22 00:21:02;;;;;;;1999.90;999.90;;;11.30;99.90;;;;;;5003319;28;20166;-80
2020/12/22 00:23:27;;;;;;;1999.90;999.90;;;11.30;99.90;;;;;;5003580;28;20178;-81
2020/12/22 00:25:53;;;;;;;1999.90;999.90;;;11.40;99.90;;;;;;5003479;28;20158;-80
2020/12/22 00:28:19;;;;;;;1999.90;999.90;;;11.40;99.90;;;;;;5003065;28;20169;-80
2020/12/22 00:30:44;;;;;;;1999.90;999.90;;;11.40;99.90;;;;;;5002864;28;20173;-80
2020/12/22 00:33:11;;;;;;;1999.90;999.90;;;11.40;99.90;;;;;;5003093;28;20218;-80
2020/12/22 00:35:37;;;;;;;1999.90;999.90;;;11.40;99.90;;;;;;5001953;28;20735;-80
2020/12/22 00:38:03;;;;;;;1999.90;999.90;;;11.40;99.90;;;;;;5003484;28;20159;-80
2020/12/22 00:40:29;;;;;;;1999.90;999.90;;;11.50;99.90;;;;;;5003524;28;20181;-80
2020/12/22 00:42:55;;;;;;;1999.90;999.90;;;11.50;99.90;;;;;;5002907;28;20987;-80
2020/12/22 00:45:22;;;;;;;1999.90;999.90;;;11.50;99.90;;;;;;5004779;28;20166;-80
2020/12/22 00:47:48;;;;;;;1999.90;999.90;;;11.60;99.90;;;;;;5002363;28;20174;-80
2020/12/22 00:50:13;;;;;;;1999.90;999.90;;;11.60;99.90;;;;;;5004459;28;20174;-81
2020/12/22 00:52:39;;;;;;;1999.90;999.90;;;11.60;99.90;;;;;;5003126;28;20250;-80
2020/12/22 00:55:06;;;;;;;1999.90;999.90;;;11.70;99.90;;;;;;5003125;28;20207;-80
2020/12/22 00:57:32;;;;;;;1999.90;999.90;;;11.70;99.90;;;;;;5006660;28;20488;-80
2020/12/22 00:59:58;;;;;;;1999.90;999.90;;;11.80;99.90;;;;;;5008236;28;20163;-80
2020/12/22 01:02:24;;;;;;;1999.90;999.90;;;11.80;99.90;;;;;;5007772;28;20519;-81
2020/12/22 01:04:50;;;;;;;1999.90;999.90;;;11.80;99.90;;;;;;5008330;28;20410;-80
2020/12/22 01:07:17;;;;;;;1999.90;999.90;;;11.90;99.90;;;;;;5007132;28;20189;-81
2020/12/22 01:09:43;;;;;;;1999.90;999.90;;;11.90;99.90;;;;;;5007037;28;20194;-80
2020/12/22 01:12:09;;;;;;;1999.90;999.90;;;12.00;99.90;;;;;;5007658;28;20171;-81
2020/12/22 01:14:35;;;;;;;1999.90;999.90;;;12.00;99.90;;;;;;5007382;28;20225;-80
2020/12/22 01:17:00;;;;;;;1999.90;999.90;;;12.00;99.90;;;;;;5007623;28;20167;-80
2020/12/22 01:19:26;;;;;;;1999.90;999.90;;;12.00;99.90;;;;;;5007144;28;20166;-80
2020/12/22 01:21:55;;;;;;;1999.90;999.90;;;12.10;99.90;;;;;;5006831;28;20202;-80
2020/12/22 01:24:21;;;;;;;1999.90;999.90;;;12.10;99.90;;;;;;5007993;28;20167;-81
2020/12/22 01:26:49;;;;;;;1999.90;999.90;;;12.10;99.90;;;;;;5008342;28;20170;-81
2020/12/22 01:29:15;;;;;;;1999.90;999.90;;;12.10;99.90;;;;;;5008010;28;20249;-80
2020/12/22 01:31:40;;;;;;;1999.90;999.90;;;12.10;99.90;;;;;;5005777;28;20201;-81
2020/12/22 01:34:06;;;;;;;1999.90;999.90;;;12.10;99.90;;;;;;5006916;28;20201;-80
2020/12/22 01:36:32;;;;;;;1999.90;999.90;;;12.10;99.90;;;;;;5007563;28;20182;-80
2020/12/22 01:38:58;;;;;;;1999.90;999.90;;;12.20;99.90;;;;;;5005543;28;20170;-81
2020/12/22 01:41:23;;;;;;;1999.90;999.90;;;12.20;99.90;;;;;;5005646;28;20190;-80
2020/12/22 01:44:14;;;;;;;1999.90;999.90;;;12.20;99.90;;;;;;5005730;28;20174;-80
2020/12/22 01:46:52;;;;;;;1999.90;999.90;;;12.20;99.90;;;;;;5007083;28;20154;-80
2020/12/22 01:49:25;;;;;;;1999.90;999.90;;;12.20;99.90;;;;;;5005394;28;20178;-80
2020/12/22 01:51:55;;;;;;;1999.90;999.90;;;12.20;99.90;;;;;;5006410;28;20151;-81
2020/12/22 01:54:21;;;;;;;1999.90;999.90;;;12.20;99.90;;;;;;5006695;28;20194;-80
2020/12/22 01:56:47;;;;;;;1999.90;999.90;;;12.20;99.90;;;;;;5005604;28;20167;-81
2020/12/22 01:59:13;;;;;;;1999.90;999.90;;;12.30;99.90;;;;;;5007064;28;20159;-81
2020/12/22 02:01:39;;;;;;;1999.90;999.90;;;12.30;99.90;;;;;;5005530;28;20416;-80
2020/12/22 02:04:07;;;;;;;1999.90;999.90;;;12.20;99.90;;;;;;5006475;28;20221;-80
2020/12/22 02:06:33;;;;;;;1999.90;999.90;;;12.30;99.90;;;;;;5006606;28;20401;-80
2020/12/22 02:09:00;;;;;;;1999.90;999.90;;;12.30;99.90;;;;;;5006714;28;20175;-81
2020/12/22 02:11:29;;;;;;;1999.90;999.90;;;12.20;99.90;;;;;;5006985;28;20196;-81
2020/12/22 02:13:57;;;;;;;1999.90;999.90;;;12.20;99.90;;;;;;5006679;28;20213;-81
2020/12/22 02:16:23;;;;;;;1999.90;999.90;;;12.20;99.90;;;;;;5007377;28;20169;-81
2020/12/22 02:18:50;;;;;;;1999.90;999.90;;;12.20;99.90;;;;;;5007237;28;20637;-80
2020/12/22 02:21:16;;;;;;;1999.90;999.90;;;12.30;99.90;;;;;;5006473;28;20166;-80
2020/12/22 02:23:49;;;;;;;1999.90;999.90;;;12.20;99.90;;;;;;5005717;28;20167;-81
2020/12/22 02:26:15;;;;;;;1999.90;999.90;;;12.30;99.90;;;;;;5007336;28;20386;-81
2020/12/22 02:28:41;;;;;;;1999.90;999.90;;;12.30;99.90;;;;;;5006120;28;20193;-81
2020/12/22 02:31:07;;;;;;;1999.90;999.90;;;12.30;99.90;;;;;;5006014;28;20202;-80
2020/12/22 02:33:33;;;;;;;1999.90;999.90;;;12.40;99.90;;;;;;5005831;28;20170;-80
2020/12/22 02:35:58;;;;;;;1999.90;999.90;;;12.40;99.90;;;;;;5074036;23;20268;-84
2020/12/22 02:38:27;;;;;;;1999.90;999.90;;;12.40;99.90;;;;;;4997666;28;20185;-84
2020/12/22 02:40:53;;;;;;;1999.90;999.90;;;12.40;99.90;;;;;;4998709;28;20224;-83
2020/12/22 02:43:19;;;;;;;1999.90;999.90;;;12.50;99.90;;;;;;4996393;28;20198;-83
2020/12/22 02:45:45;;;;;;;1999.90;999.90;;;12.70;99.90;;;;;;4996199;28;20425;-84
2020/12/22 02:48:14;;;;;;;1999.90;999.90;;;12.70;99.90;;;;;;4996287;28;20171;-83
2020/12/22 02:50:40;;;;;;;1999.90;999.90;;;12.80;99.90;;;;;;4995934;28;20249;-83
2020/12/22 02:53:07;;;;;;;1999.90;999.90;;;12.90;99.90;;;;;;4996100;28;20199;-83
2020/12/22 02:55:33;;;;;;;1999.90;999.90;;;13.00;99.90;;;;;;4995761;28;20209;-83
2020/12/22 02:57:58;;;;;;;1999.90;999.90;;;13.10;99.90;;;;;;4996031;28;20166;-84
2020/12/22 03:00:25;;;;;;;1999.90;999.90;;;13.10;99.90;;;;;;4995105;28;20166;-84
2020/12/22 03:02:51;;;;;;;1999.90;999.90;;;13.20;99.90;;;;;;4996376;28;20223;-84
2020/12/22 03:05:17;;;;;;;1999.90;999.90;;;13.30;99.90;;;;;;4995184;28;20201;-84
2020/12/22 03:07:44;;;;;;;1999.90;999.90;;;13.30;99.90;;;;;;4996262;28;20464;-84
2020/12/22 03:10:14;;;;;;;1999.90;999.90;;;13.40;99.90;;;;;;4995381;28;20175;-85
2020/12/22 03:12:41;;;;;;;1999.90;999.90;;;13.40;99.90;;;;;;4996559;28;20174;-85
2020/12/22 03:15:08;;;;;;;1999.90;999.90;;;13.40;99.90;;;;;;4995210;28;20221;-85
2020/12/22 03:17:37;;;;;;;1999.90;999.90;;;13.50;99.90;;;;;;4996986;28;20205;-85
2020/12/22 03:20:11;;;;;;;1999.90;999.90;;;13.50;99.90;;;;;;4996021;28;20541;-85
2020/12/22 03:22:38;;;;;;;1999.90;999.90;;;13.60;99.90;;;;;;4995039;28;20208;-85
2020/12/22 03:25:05;;;;;;;1999.90;999.90;;;13.60;99.90;;;;;;4994728;28;20167;-85
2020/12/22 03:27:31;;;;;;;1999.90;999.90;;;13.60;99.90;;;;;;4996587;28;20170;-85
2020/12/22 03:29:58;;;;;;;1999.90;999.90;;;13.60;99.90;;;;;;4995039;28;20213;-85
2020/12/22 03:32:24;;;;;;;1999.90;999.90;;;13.60;99.90;;;;;;4995292;28;20171;-84
2020/12/22 03:34:50;;;;;;;1999.90;999.90;;;13.60;99.90;;;;;;4995434;28;20191;-85
2020/12/22 03:37:19;;;;;;;1999.90;999.90;;;13.60;99.90;;;;;;4997102;28;20182;-85
2020/12/22 03:39:49;;;;;;;1999.90;999.90;;;13.60;99.90;;;;;;4994955;28;20414;-84
2020/12/22 03:42:15;;;;;;;1999.90;999.90;;;13.60;99.90;;;;;;4996009;28;20194;-85
2020/12/22 03:44:41;;;;;;;1999.90;999.90;;;13.70;99.90;;;;;;4996668;28;20194;-84
2020/12/22 03:47:07;;;;;;;1999.90;999.90;;;13.70;99.90;;;;;;4995958;28;20217;-84
2020/12/22 03:49:33;;;;;;;1999.90;999.90;;;13.70;99.90;;;;;;4996337;28;20633;-85
2020/12/22 03:51:59;;;;;;;1999.90;999.90;;;13.80;99.90;;;;;;4996152;28;20398;-84
2020/12/22 03:54:25;;;;;;;1999.90;999.90;;;13.80;99.90;;;;;;4994774;28;20252;-85
2020/12/22 03:56:50;;;;;;;1999.90;999.90;;;13.80;99.90;;;;;;4994834;28;20414;-85
2020/12/22 03:59:16;;;;;;;1999.90;999.90;;;13.80;99.90;;;;;;4996507;28;20162;-85
2020/12/22 04:01:42;;;;;;;1999.90;999.90;;;13.80;99.90;;;;;;4994946;28;20534;-85
2020/12/22 04:04:07;;;;;;;1999.90;999.90;;;13.80;99.90;;;;;;4994695;28;20220;-83
2020/12/22 04:06:33;;;;;;;1999.90;999.90;;;13.90;99.90;;;;;;4994833;28;20230;-84
2020/12/22 04:08:58;;;;;;;1999.90;999.90;;;13.90;99.90;;;;;;4994863;28;20237;-84
2020/12/22 04:11:27;;;;;;;1999.90;999.90;;;13.90;99.90;;;;;;4995002;28;20209;-84
2020/12/22 04:13:52;;;;;;;1999.90;999.90;;;13.90;99.90;;;;;;4995946;28;20190;-84
2020/12/22 04:16:18;;;;;;;1999.90;999.90;;;14.00;99.90;;;;;;4995182;28;20221;-84
2020/12/22 04:18:44;;;;;;;1999.90;999.90;;;14.00;99.90;;;;;;4995810;28;20588;-84
2020/12/22 04:21:10;;;;;;;1999.90;999.90;;;14.10;99.90;;;;;;4995940;28;20206;-84
2020/12/22 04:23:35;;;;;;;1999.90;999.90;;;14.10;99.90;;;;;;4994036;28;20178;-84
2020/12/22 04:26:01;;;;;;;1999.90;999.90;;;14.10;99.90;;;;;;4995539;28;20162;-84
2020/12/22 04:28:27;;;;;;;1999.90;999.90;;;14.10;99.90;;;;;;4995767;28;20162;-84
2020/12/22 04:30:53;;;;;;;1999.90;999.90;;;14.10;99.90;;;;;;4996026;28;20515;-84
2020/12/22 04:33:18;;;;;;;1999.90;999.90;;;14.10;99.90;;;;;;4998998;28;20246;-84
2020/12/22 04:35:44;;;;;;;1999.90;999.90;;;14.20;99.90;;;;;;4998753;28;20192;-84
2020/12/22 04:38:10;;;;;;;1999.90;999.90;;;14.20;99.90;;;;;;4999087;28;20155;-84
2020/12/22 04:40:35;;;;;;;1999.90;999.90;;;14.20;99.90;;;;;;4998704;28;20162;-84
2020/12/22 04:43:02;;;;;;;1999.90;999.90;;;14.30;99.90;;;;;;4998592;28;20221;-84
2020/12/22 04:45:29;;;;;;;1999.90;999.90;;;14.20;99.90;;;;;;4997277;28;20541;-83
2020/12/22 04:47:56;;;;;;;1999.90;999.90;;;14.20;99.90;;;;;;4998306;28;20170;-84
2020/12/22 04:50:23;;;;;;;1999.90;999.90;;;14.20;99.90;;;;;;4998267;28;20661;-84
2020/12/22 04:52:50;;;;;;;1999.90;999.90;;;14.20;99.90;;;;;;4998063;28;20158;-84
2020/12/22 04:55:18;;;;;;;1999.90;999.90;;;14.20;99.90;;;;;;4998172;28;20197;-84
2020/12/22 04:57:49;;;;;;;1999.90;999.90;;;14.10;99.90;;;;;;4998485;28;20526;-83
2020/12/22 05:00:16;;;;;;;1999.90;999.90;;;14.20;99.90;;;;;;4998109;28;20166;-84
2020/12/22 05:02:43;;;;;;;1999.90;999.90;;;14.20;99.90;;;;;;4998271;28;20193;-84
2020/12/22 05:05:12;;;;;;;1999.90;999.90;;;14.20;99.90;;;;;;4996727;28;20541;-84
2020/12/22 05:07:42;;;;;;;1999.90;999.90;;;14.30;99.90;;;;;;4997927;28;20245;-84
2020/12/22 05:10:09;;;;;;;1999.90;999.90;;;14.30;99.90;;;;;;4998411;28;20665;-84
2020/12/22 05:12:38;;;;;;;1999.90;999.90;;;14.30;99.90;;;;;;4997040;28;20170;-84
2020/12/22 05:15:05;;;;;;;1999.90;999.90;;;14.20;99.90;;;;;;4998377;28;20205;-84
2020/12/22 05:17:31;;;;;;;1999.90;999.90;;;14.20;99.90;;;;;;4998236;28;20513;-83
2020/12/22 05:19:58;;;;;;;1999.90;999.90;;;14.20;99.90;;;;;;4998378;28;20162;-84
2020/12/22 05:22:24;;;;;;;1999.90;999.90;;;14.20;99.90;;;;;;4998350;28;20163;-84
2020/12/22 05:24:51;;;;;;;1999.90;999.90;;;14.20;99.90;;;;;;4998202;28;20733;-84
2020/12/22 05:27:19;;;;;;;1999.90;999.90;;;14.30;99.90;;;;;;4998035;28;20167;-84
2020/12/22 05:29:48;;;;;;;1999.90;999.90;;;14.30;99.90;;;;;;4996744;28;20588;-84
2020/12/22 05:32:18;;;;;;;1999.90;999.90;;;14.30;99.90;;;;;;4998135;28;20173;-84
2020/12/22 05:34:44;;;;;;;1999.90;999.90;;;14.30;99.90;;;;;;4998793;28;20182;-84
2020/12/22 05:37:10;;;;;;;1999.90;999.90;;;14.30;99.90;;;;;;4997982;28;20657;-85
2020/12/22 05:39:39;;;;;;;1999.90;999.90;;;14.30;99.90;;;;;;4998467;28;20170;-84
2020/12/22 05:42:18;;;;;;;1999.90;999.90;;;14.30;99.90;;;;;;4997757;28;20181;-85
2020/12/22 05:44:50;;;;;;;1999.90;999.90;;;14.30;99.90;;;;;;4998957;28;20181;-85
2020/12/22 05:47:20;;;;;;;1999.90;999.90;;;14.30;99.90;;;;;;4999762;28;20182;-84
2020/12/22 05:49:57;;;;;;;1999.90;999.90;;;14.30;99.90;;;;;;4998283;28;20178;-85
2020/12/22 05:52:24;;;;;;;1999.90;999.90;;;14.30;99.90;;;;;;4999115;28;20167;-85
2020/12/22 05:54:51;;;;;;;1999.90;999.90;;;14.30;99.90;;;;;;4998774;28;20194;-85
2020/12/22 05:57:25;;;;;;;1999.90;999.90;;;14.30;99.90;;;;;;4997741;28;20671;-84
2020/12/22 05:59:54;;;;;;;1999.90;999.90;;;14.30;99.90;;;;;;4998792;28;20163;-85
2020/12/22 06:02:28;;;;;;;1999.90;999.90;;;14.30;99.90;;;;;;4997766;28;20182;-85
2020/12/22 06:04:59;;;;;;;1999.90;999.90;;;14.30;99.90;;;;;;4996927;28;20167;-84
2020/12/22 06:07:28;;;;;;;1999.90;999.90;;;14.30;99.90;;;;;;4997713;28;20159;-85
2020/12/22 06:09:54;;;;;;;1999.90;999.90;;;14.30;99.90;;;;;;4998088;28;20175;-84
2020/12/22 06:12:21;;;;;;;1999.90;999.90;;;14.30;99.90;;;;;;4998113;28;20170;-85
2020/12/22 06:14:49;;;;;;;1999.90;999.90;;;14.30;99.90;;;;;;4997903;28;20202;-84
2020/12/22 06:17:15;;;;;;;1999.90;999.90;;;14.30;99.90;;;;;;4998592;28;20167;-85
2020/12/22 06:19:43;;;;;;;1999.90;999.90;;;14.30;99.90;;;;;;4996908;28;20220;-85
2020/12/22 06:22:14;;;;;;;1999.90;999.90;;;14.30;99.90;;;;;;4997381;28;20170;-85
2020/12/22 06:24:41;;;;;;;1999.90;999.90;;;14.30;99.90;;;;;;4998719;28;20632;-85
2020/12/22 06:27:11;;;;;;;1999.90;999.90;;;14.30;99.90;;;;;;4998387;28;20166;-84
2020/12/22 06:29:41;;;;;;;1999.90;999.90;;;14.30;99.90;;;;;;4997578;28;20230;-85
2020/12/22 06:32:27;;;;;;;1999.90;999.90;;;14.30;99.90;;;;;;4996611;28;20170;-84
2020/12/22 06:35:04;;;;;;;1999.90;999.90;;;14.30;99.90;;;;;;4995917;28;20194;-84
2020/12/22 06:37:44;;;;;;;1999.90;999.90;;;14.30;99.90;;;;;;4997313;28;20264;-84
2020/12/22 06:40:10;;;;;;;1999.90;999.90;;;14.30;99.90;;;;;;4997014;28;20510;-84
2020/12/22 06:42:39;;;;;;;1999.90;999.90;;;14.30;99.90;;;;;;4998089;28;20162;-85
2020/12/22 06:45:25;;;;;;;1999.90;999.90;;;14.40;99.90;;;;;;4996132;28;20414;-84
2020/12/22 06:47:51;;;;;;;1999.90;999.90;;;14.40;99.90;;;;;;4996259;28;20641;-83
2020/12/22 06:50:37;;;;;;;1999.90;999.90;;;14.40;99.90;;;;;;4996567;28;20187;-84
2020/12/22 06:53:03;;;;;;;1999.90;999.90;;;14.40;99.90;;;;;;4996214;28;20205;-85
2020/12/22 06:55:51;;;;;;;1999.90;999.90;;;14.40;99.90;;;;;;4995709;28;20198;-84
2020/12/22 06:58:47;;;;;;;1999.90;999.90;;;14.40;99.90;;;;;;4997034;28;20645;-85
2020/12/22 07:01:47;;;;;;;1999.90;999.90;;;14.40;99.90;;;;;;4997555;28;20549;-84
2020/12/22 07:04:20;;;;;;;1999.90;999.90;;;14.50;99.90;;;;;;4995121;28;20537;-84
2020/12/22 07:06:51;;;;;;;1999.90;999.90;;;14.50;99.90;;;;;;4996769;28;20256;-84
2020/12/22 07:09:22;;;;;;;1999.90;999.90;;;14.50;99.90;;;;;;4996642;28;20245;-85
2020/12/22 07:11:50;;;;;;;1999.90;999.90;;;14.50;99.90;;;;;;4997202;28;20568;-85
2020/12/22 07:14:17;;;;;;;1999.90;999.90;;;14.50;99.90;;;;;;4996006;28;20604;-85
2020/12/22 07:16:53;;;;;;;1999.90;999.90;;;14.40;99.90;;;;;;4995846;28;20169;-85
2020/12/22 07:19:30;;;;;;;1999.90;999.90;;;14.40;99.90;;;;;;4996139;28;20170;-84
2020/12/22 07:22:01;;;;;;;1999.90;999.90;;;14.40;99.90;;;;;;4997831;28;20155;-84
2020/12/22 07:24:29;;;;;;;1999.90;999.90;;;14.40;99.90;;;;;;4998034;28;20226;-85
2020/12/22 07:26:55;;;;;;;1999.90;999.90;;;14.40;99.90;;;;;;4998487;28;20174;-85
2020/12/22 07:29:22;;;;;;;1999.90;999.90;;;14.50;99.90;;;;;;4998620;28;20170;-84
2020/12/22 07:31:48;;;;;;;1999.90;999.90;;;14.50;99.90;;;;;;4997342;28;20166;-85
2020/12/22 07:34:14;;;;;;;1999.90;999.90;;;14.50;99.90;;;;;;4996577;28;20534;-84
2020/12/22 07:36:41;;;;;;;1999.90;999.90;;;14.50;99.90;;;;;;4996921;28;20421;-85
2020/12/22 07:39:25;;;;;;;1999.90;999.90;;;14.50;99.90;;;;;;4997537;28;20170;-85
2020/12/22 07:41:51;;;;;;;1999.90;999.90;;;14.50;99.90;;;;;;4998596;28;20617;-85
2020/12/22 07:44:19;;;;;;;1999.90;999.90;;;14.50;99.90;;;;;;4997872;28;20171;-85
2020/12/22 07:46:47;;;;;;;1999.90;999.90;;;14.50;99.90;;;;;;4997783;28;20202;-85
2020/12/22 07:49:14;;;;;;;1999.90;999.90;;;14.50;99.90;;;;;;4998798;28;20188;-85
2020/12/22 07:51:44;;;;;;;1999.90;999.90;;;14.50;99.90;;;;;;4997616;28;20185;-84
2020/12/22 07:54:11;;;;;;;1999.90;999.90;;;14.50;99.90;;;;;;4996326;28;20201;-85
2020/12/22 07:56:39;;;;;;;1999.90;999.90;;;14.50;99.90;;;;;;4997611;28;20171;-85
2020/12/22 07:59:10;;;;;;;1999.90;999.90;;;14.50;99.90;;;;;;4995987;28;20166;-85
2020/12/22 08:01:40;;;;;;;1999.90;999.90;;;14.50;99.90;;;;;;4995732;28;20166;-85
2020/12/22 08:04:16;;;;;;;1999.90;999.90;;;14.50;99.90;;;;;;4995870;28;20170;-85
2020/12/22 08:06:55;;;;;;;1999.90;999.90;;;14.50;99.90;;;;;;4997418;28;20174;-85
2020/12/22 08:09:26;;;;;;;1999.90;999.90;;;14.50;99.90;;;;;;4995880;28;20176;-85
2020/12/22 08:11:54;;;;;;;1999.90;999.90;;;14.50;99.90;;;;;;4996328;28;20245;-84
2020/12/22 08:14:22;;;;;;;1999.90;999.90;;;14.50;99.90;;;;;;4997255;28;20634;-85
2020/12/22 08:16:50;;;;;;;1999.90;999.90;;;14.50;99.90;;;;;;4996863;28;20171;-85
2020/12/22 08:19:20;;;;;;;1999.90;999.90;;;14.50;99.90;;;;;;4993843;28;20193;-84
2020/12/22 08:21:47;;;;;;;1999.90;999.90;;;14.50;99.90;;;;;;4994696;28;20245;-84
2020/12/22 08:24:16;;;;;;;1999.90;999.90;;;14.50;99.90;;;;;;4995611;28;20712;-85
2020/12/22 08:26:47;;;;;;;1999.90;999.90;;;14.50;99.90;;;;;;4996625;28;20205;-85
2020/12/22 08:29:15;;;;;;;1999.90;999.90;;;14.60;99.90;;;;;;4994602;28;20178;-84
2020/12/22 08:31:42;;;;;;;1999.90;999.90;;;14.60;99.90;;;;;;4995050;28;20163;-84
2020/12/22 08:34:10;;;;;;;1999.90;999.90;;;14.60;99.90;;;;;;4994394;28;20281;-84
2020/12/22 08:36:36;;;;;;;1999.90;999.90;;;14.60;99.90;;;;;;4993050;28;20197;-85
2020/12/22 08:39:18;;;;;;;1999.90;999.90;;;14.70;99.90;;;;;;4993953;28;20170;-85
2020/12/22 08:41:49;;;;;;;1999.90;999.90;;;14.70;99.90;;;;;;4995638;28;20428;-85
2020/12/22 08:44:16;;;;;;;1999.90;999.90;;;14.60;99.90;;;;;;4997267;28;20562;-85
2020/12/22 08:46:43;;;;;;;1999.90;999.90;;;14.60;99.90;;;;;;4994310;28;20174;-85
2020/12/22 08:49:13;;;;;;;1999.90;999.90;;;14.60;99.90;;;;;;4993973;28;20181;-84
2020/12/22 08:51:42;;;;;;;1999.90;999.90;;;14.60;99.90;;;;;;4994975;28;20162;-84
2020/12/22 08:54:08;;;;;;;1999.90;999.90;;;14.60;99.90;;;;;;4993899;28;20203;-84
2020/12/22 08:56:37;;;;;;;1999.90;999.90;;;14.60;99.90;;;;;;4993366;28;20414;-84
2020/12/22 08:59:05;;;;;;;1999.90;999.90;;;14.60;99.90;;;;;;4995500;28;20159;-84
2020/12/22 09:01:46;;;;;;;1999.90;999.90;;;14.60;99.90;;;;;;4993669;28;20171;-84
2020/12/22 09:04:13;;;;;;;1999.90;999.90;;;14.70;99.90;;;;;;4994945;28;20194;-84
2020/12/22 09:06:39;;;;;;;1999.90;999.90;;;14.70;99.90;;;;;;4996204;28;20581;-85
2020/12/22 09:09:19;;;;;;;1999.90;999.90;;;14.70;99.90;;;;;;4994354;28;20170;-85
2020/12/22 09:11:48;;;;;;;1999.90;999.90;;;14.60;99.90;;;;;;4995462;28;20173;-85
2020/12/22 09:14:15;;;;;;;1999.90;999.90;;;14.60;99.90;;;;;;4977052;28;20198;-84
2020/12/22 09:16:54;;;;;;;1999.90;999.90;;;14.60;99.90;;;;;;4994711;28;20322;-85
2020/12/22 09:19:21;;;;;;;1999.90;999.90;;;14.60;99.90;;;;;;4999025;28;20169;-85
2020/12/22 09:21:55;;;;;;;1999.90;999.90;;;14.60;99.90;;;;;;4997721;28;20167;-85
2020/12/22 09:24:21;;;;;;;1999.90;999.90;;;14.60;99.90;;;;;;4996559;28;20166;-85
2020/12/22 09:27:00;;;;;;;1999.90;999.90;;;14.60;99.90;;;;;;4997160;28;20167;-87
2020/12/22 09:29:30;;;;;;;1999.90;999.90;;;14.70;99.90;;;;;;4996772;28;20943;-86
2020/12/22 09:31:58;;;;;;;1999.90;999.90;;;14.70;99.90;;;;;;4995777;28;20548;-86
2020/12/22 09:34:25;;;;;;;1999.90;999.90;;;14.70;99.90;;;;;;4996227;28;20197;-86
2020/12/22 09:36:54;;;;;;;1999.90;999.90;;;14.70;99.90;;;;;;4997219;28;20182;-86
2020/12/22 09:39:20;;;;;;;1999.90;999.90;;;14.70;99.90;;;;;;4996787;28;20213;-86
2020/12/22 09:41:48;;;;;;;1999.90;999.90;;;14.70;99.90;;;;;;4996763;28;20633;-86
2020/12/22 09:44:14;;;;;;;1999.90;999.90;;;14.80;99.90;;;;;;4995692;28;20556;-85
2020/12/22 09:46:40;;;;;;;1999.90;999.90;;;14.80;99.90;;;;;;4996959;28;20197;-86
2020/12/22 09:49:06;;;;;;;1999.90;999.90;;;14.90;99.90;;;;;;4996515;28;20174;-85
2020/12/22 09:51:32;;;;;;;1999.90;999.90;;;15.10;99.90;;;;;;4997977;28;20175;-86
2020/12/22 09:53:57;;;;;;;1999.90;999.90;;;15.10;99.90;;;;;;4997086;28;20468;-86
2020/12/22 09:56:23;;;;;;;1999.90;999.90;;;15.20;99.90;;;;;;4996773;28;20202;-85
2020/12/22 09:58:49;;;;;;;1999.90;999.90;;;15.20;99.90;;;;;;4997776;28;20167;-84
2020/12/22 10:01:21;;;;;;;1999.90;999.90;;;15.20;99.90;;;;;;4998618;28;20772;-85
2020/12/22 10:03:47;;;;;;;1999.90;999.90;;;15.20;99.90;;;;;;4999801;28;20147;-85
2020/12/22 10:06:24;;;;;;;1999.90;999.90;;;15.20;99.90;;;;;;4999129;28;20529;-85
2020/12/22 10:08:51;;;;;;;1999.90;999.90;;;15.30;99.90;;;;;;4998972;28;20163;-85
2020/12/22 10:11:18;;;;;;;1999.90;999.90;;;15.30;99.90;;;;;;4998000;28;20697;-85
2020/12/22 10:13:44;;;;;;;1999.90;999.90;;;15.30;99.90;;;;;;4999056;28;20449;-84
2020/12/22 10:16:12;;;;;;;1999.90;999.90;;;15.20;99.90;;;;;;4999264;28;20178;-85
2020/12/22 10:18:38;;;;;;;1999.90;999.90;;;15.20;99.90;;;;;;4998903;28;20835;-84
2020/12/22 10:21:09;;;;;;;1999.90;999.90;;;15.20;99.90;;;;;;5000424;28;20199;-85
2020/12/22 10:23:36;;;;;;;1999.90;999.90;;;15.30;99.90;;;;;;4999108;28;20402;-85
2020/12/22 10:26:03;;;;;;;1999.90;999.90;;;15.30;99.90;;;;;;4999488;28;20174;-85
2020/12/22 10:28:30;;;;;;;1999.90;999.90;;;15.40;99.90;;;;;;4998580;28;20266;-84
2020/12/22 10:30:56;;;;;;;1999.90;999.90;;;15.40;99.90;;;;;;4998327;28;20163;-84
2020/12/22 10:33:22;;;;;;;1999.90;999.90;;;15.40;99.90;;;;;;4997828;28;20178;-84
2020/12/22 10:35:48;;;;;;;1999.90;999.90;;;15.40;99.90;;;;;;4997919;28;20504;-84
2020/12/22 10:38:13;;;;;;;1999.90;999.90;;;15.40;99.90;;;;;;4997841;28;20429;-84
2020/12/22 10:40:39;;;;;;;1999.90;999.90;;;15.40;99.90;;;;;;4996201;28;20169;-84
2020/12/22 10:43:08;;;;;;;1999.90;999.90;;;15.40;99.90;;;;;;4997458;28;20166;-84
2020/12/22 10:45:37;;;;;;;1999.90;999.90;;;15.40;99.90;;;;;;4996583;28;20245;-84
2020/12/22 10:48:04;;;;;;;1999.90;999.90;;;15.50;99.90;;;;;;4995315;28;20177;-84
2020/12/22 10:50:30;;;;;;;1999.90;999.90;;;15.60;99.90;;;;;;4994846;28;20416;-85
2020/12/22 10:52:56;;;;;;;1999.90;999.90;;;15.70;99.90;;;;;;4995039;28;20181;-84
2020/12/22 10:55:23;;;;;;;1999.90;999.90;;;15.70;99.90;;;;;;4996370;28;20226;-84
2020/12/22 10:57:50;;;;;;;1999.90;999.90;;;15.70;99.90;;;;;;4997470;28;20935;-84
2020/12/22 11:00:16;;;;;;;1999.90;999.90;;;15.80;99.90;;;;;;4995435;28;20273;-84
2020/12/22 11:02:44;;;;;;;1999.90;999.90;;;15.80;99.90;;;;;;4998928;28;20406;-85
2020/12/22 11:05:10;;;;;;;1999.90;999.90;;;15.80;99.90;;;;;;4997812;28;20413;-84
2020/12/22 11:07:48;;;;;;;1999.90;999.90;;;15.80;99.90;;;;;;4995201;28;20760;-84
2020/12/22 11:10:17;;;;;;;1999.90;999.90;;;15.80;99.90;;;;;;4996667;28;20393;-84
2020/12/22 11:12:42;;;;;;;1999.90;999.90;;;15.90;99.90;;;;;;4995132;28;20941;-84
2020/12/22 11:15:08;;;;;;;1999.90;999.90;;;16.00;99.90;;;;;;4994859;28;20452;-84
2020/12/22 11:17:35;;;;;;;1999.90;999.90;;;16.00;99.90;;;;;;4997085;28;20163;-84
2020/12/22 11:20:11;;;;;;;;;;;;;;;;;;;;;
2020/12/22 11:22:37;;;;;;;1999.90;999.90;;;16.20;99.90;;;;;;4996160;28;20382;-84
2020/12/22 11:25:06;;;;;;;1999.90;999.90;;;16.20;99.90;;;;;;4996206;28;20837;-84
2020/12/22 11:27:32;;;;;;;1999.90;999.90;;;16.20;99.90;;;;;;4995015;28;20852;-85
2020/12/22 11:29:57;;;;;;;1999.90;999.90;;;16.00;99.90;;;;;;4995700;28;20446;-84
2020/12/22 11:32:23;;;;;;;1999.90;999.90;;;16.00;99.90;;;;;;4997364;28;20170;-85
2020/12/22 11:34:49;;;;;;;1999.90;999.90;;;15.90;99.90;;;;;;4996465;28;20194;-85
2020/12/22 11:37:15;;;;;;;1999.90;999.90;;;15.80;99.90;;;;;;4996397;28;20190;-85
2020/12/22 11:39:40;;;;;;;1999.90;999.90;;;15.80;99.90;;;;;;4996008;28;20530;-85
2020/12/22 11:42:06;;;;;;;1999.90;999.90;;;15.70;99.90;;;;;;4996364;28;20159;-85
2020/12/22 11:44:32;;;;;;;1999.90;999.90;;;15.80;99.90;;;;;;4995481;28;20175;-85
2020/12/22 11:46:58;;;;;;;1999.90;999.90;;;15.80;99.90;;;;;;4995291;28;20923;-85
2020/12/22 11:49:25;;;;;;;1999.90;999.90;;;15.70;99.90;;;;;;4994931;28;20904;-85
2020/12/22 11:52:02;;;;;;;1999.90;999.90;;;15.70;99.90;;;;;;4994779;28;20229;-84
2020/12/22 11:54:28;;;;;;;1999.90;999.90;;;15.70;99.90;;;;;;4995335;28;20452;-85
2020/12/22 11:56:54;;;;;;;1999.90;999.90;;;15.70;99.90;;;;;;4994218;28;20410;-84
2020/12/22 11:59:19;;;;;;;1999.90;999.90;;;15.70;99.90;;;;;;4996425;28;20184;-85
2020/12/22 12:01:45;;;;;;;1999.90;999.90;;;15.60;99.90;;;;;;4998922;28;20430;-85
2020/12/22 12:04:12;;;;;;;1999.90;999.90;;;15.70;99.90;;;;;;4997453;28;20194;-85
2020/12/22 12:06:38;;;;;;;1999.90;999.90;;;15.80;99.90;;;;;;4999452;28;20912;-85